sensor_id;sensor_type;location;lat;lon;timestamp;temperature;humidity
35633;DHT22;21754;48.216;-1.628;2022-08-05T00:19:33;19.80;99.90
35633;DHT22;21754;48.216;-1.628;2022-08-05T00:21:59;19.50;99.90
35633;DHT22;21754;48.216;-1.628;2022-08-05T00:24:24;19.50;99.90
35633;DHT22;21754;48.216;-1.628;2022-08-05T00:26:50;19.40;99.90
35633;DHT22;21754;48.216;-1.628;2022-08-05T00:29:16;19.40;99.90
35633;DHT22;21754;48.216;-1.628;2022-08-05T00:31:42;19.40;99.90
35633;DHT22;21754;48.216;-1.628;2022-08-05T00:34:07;19.40;99.90
35633;DHT22;21754;48.216;-1.628;2022-08-05T00:36:33;19.40;99.90
35633;DHT22;21754;48.216;-1.628;2022-08-05T00:43:55;19.30;99.90
35633;DHT22;21754;48.216;-1.628;2022-08-05T00:46:20;19.20;99.90
35633;DHT22;21754;48.216;-1.628;2022-08-05T00:48:46;19.20;99.90
35633;DHT22;21754;48.216;-1.628;2022-08-05T00:51:12;19.10;99.90
35633;DHT22;21754;48.216;-1.628;2022-08-05T00:53:38;19.20;99.90
35633;DHT22;21754;48.216;-1.628;2022-08-05T02:55:47;19.20;99.90
35633;DHT22;21754;48.216;-1.628;2022-08-05T02:58:15;18.30;99.90
35633;DHT22;21754;48.216;-1.628;2022-08-05T03:00:43;18.30;99.90
35633;DHT22;21754;48.216;-1.628;2022-08-05T03:03:19;18.30;99.90
35633;DHT22;21754;48.216;-1.628;2022-08-05T03:05:49;18.20;99.90
35633;DHT22;21754;48.216;-1.628;2022-08-05T03:08:16;18.20;99.90
35633;DHT22;21754;48.216;-1.628;2022-08-05T03:10:43;18.20;99.90
35633;DHT22;21754;48.216;-1.628;2022-08-05T03:13:14;18.20;99.90
35633;DHT22;21754;48.216;-1.628;2022-08-05T03:15:42;18.30;99.90
35633;DHT22;21754;48.216;-1.628;2022-08-05T03:18:08;18.20;99.90
35633;DHT22;21754;48.216;-1.628;2022-08-05T03:20:34;18.20;99.90
35633;DHT22;21754;48.216;-1.628;2022-08-05T03:27:54;18.20;99.90
35633;DHT22;21754;48.216;-1.628;2022-08-05T03:30:21;18.20;99.90
35633;DHT22;21754;48.216;-1.628;2022-08-05T03:32:47;18.20;99.90
35633;DHT22;21754;48.216;-1.628;2022-08-05T03:35:13;18.10;99.90
35633;DHT22;21754;48.216;-1.628;2022-08-05T03:37:40;18.10;99.90
35633;DHT22;21754;48.216;-1.628;2022-08-05T03:40:06;18.10;99.90
35633;DHT22;21754;48.216;-1.628;2022-08-05T03:42:33;18.10;99.90
35633;DHT22;21754;48.216;-1.628;2022-08-05T03:44:59;18.10;99.90
35633;DHT22;21754;48.216;-1.628;2022-08-05T03:47:25;17.90;99.90
35633;DHT22;21754;48.216;-1.628;2022-08-05T03:49:51;17.90;99.90
35633;DHT22;21754;48.216;-1.628;2022-08-05T03:52:25;17.90;99.90
35633;DHT22;21754;48.216;-1.628;2022-08-05T03:54:59;17.90;99.90
35633;DHT22;21754;48.216;-1.628;2022-08-05T03:57:27;18.00;99.90
35633;DHT22;21754;48.216;-1.628;2022-08-05T04:00:00;17.90;99.90
35633;DHT22;21754;48.216;-1.628;2022-08-05T04:02:32;17.80;99.90
35633;DHT22;21754;48.216;-1.628;2022-08-05T04:05:00;17.80;99.90
35633;DHT22;21754;48.216;-1.628;2022-08-05T04:07:27;17.80;99.90
35633;DHT22;21754;48.216;-1.628;2022-08-05T04:09:53;17.70;99.90
35633;DHT22;21754;48.216;-1.628;2022-08-05T04:12:21;17.80;99.90
35633;DHT22;21754;48.216;-1.628;2022-08-05T04:14:46;17.70;99.90
35633;DHT22;21754;48.216;-1.628;2022-08-05T04:17:13;17.70;99.90
35633;DHT22;21754;48.216;-1.628;2022-08-05T04:19:43;17.70;99.90
35633;DHT22;21754;48.216;-1.628;2022-08-05T04:22:09;17.70;99.90
35633;DHT22;21754;48.216;-1.628;2022-08-05T04:24:40;17.70;99.90
35633;DHT22;21754;48.216;-1.628;2022-08-05T04:27:06;17.70;99.90
35633;DHT22;21754;48.216;-1.628;2022-08-05T04:29:32;17.70;99.90
35633;DHT22;21754;48.216;-1.628;2022-08-05T04:31:57;17.70;99.90
35633;DHT22;21754;48.216;-1.628;2022-08-05T04:34:23;17.70;99.90
35633;DHT22;21754;48.216;-1.628;2022-08-05T04:36:49;17.70;99.90
35633;DHT22;21754;48.216;-1.628;2022-08-05T04:39:14;17.70;99.90
35633;DHT22;21754;48.216;-1.628;2022-08-05T04:41:40;17.60;99.90
35633;DHT22;21754;48.216;-1.628;2022-08-05T04:44:05;17.70;99.90
35633;DHT22;21754;48.216;-1.628;2022-08-05T04:46:31;17.70;99.90
35633;DHT22;21754;48.216;-1.628;2022-08-05T04:48:57;17.70;99.90
35633;DHT22;21754;48.216;-1.628;2022-08-05T04:51:23;17.60;99.90
35633;DHT22;21754;48.216;-1.628;2022-08-05T04:53:48;17.60;99.90
35633;DHT22;21754;48.216;-1.628;2022-08-05T04:56:14;17.60;99.90
35633;DHT22;21754;48.216;-1.628;2022-08-05T04:58:40;17.60;99.90
35633;DHT22;21754;48.216;-1.628;2022-08-05T05:01:06;17.60;99.90
35633;DHT22;21754;48.216;-1.628;2022-08-05T05:03:32;17.60;99.90
35633;DHT22;21754;48.216;-1.628;2022-08-05T05:05:57;17.60;99.90
35633;DHT22;21754;48.216;-1.628;2022-08-05T05:08:23;17.60;99.90
35633;DHT22;21754;48.216;-1.628;2022-08-05T05:10:49;17.70;99.90
35633;DHT22;21754;48.216;-1.628;2022-08-05T05:13:16;17.70;99.90
35633;DHT22;21754;48.216;-1.628;2022-08-05T05:15:42;17.70;99.90
35633;DHT22;21754;48.216;-1.628;2022-08-05T05:18:11;17.70;99.90
35633;DHT22;21754;48.216;-1.628;2022-08-05T05:20:36;17.70;99.90
35633;DHT22;21754;48.216;-1.628;2022-08-05T05:23:02;17.70;99.90
35633;DHT22;21754;48.216;-1.628;2022-08-05T05:25:29;17.70;99.90
35633;DHT22;21754;48.216;-1.628;2022-08-05T05:27:55;17.80;99.90
35633;DHT22;21754;48.216;-1.628;2022-08-05T05:30:21;17.80;99.90
35633;DHT22;21754;48.216;-1.628;2022-08-05T05:32:47;17.80;99.90
35633;DHT22;21754;48.216;-1.628;2022-08-05T05:35:13;17.80;99.90
35633;DHT22;21754;48.216;-1.628;2022-08-05T05:37:51;17.80;99.90
35633;DHT22;21754;48.216;-1.628;2022-08-05T05:40:19;17.80;99.90
35633;DHT22;21754;48.216;-1.628;2022-08-05T05:42:45;17.80;99.90
35633;DHT22;21754;48.216;-1.628;2022-08-05T05:45:12;17.80;99.90
35633;DHT22;21754;48.216;-1.628;2022-08-05T05:47:38;17.80;99.90
35633;DHT22;21754;48.216;-1.628;2022-08-05T05:50:04;17.90;99.90
35633;DHT22;21754;48.216;-1.628;2022-08-05T05:52:29;17.90;99.90
35633;DHT22;21754;48.216;-1.628;2022-08-05T05:54:58;17.90;99.90
35633;DHT22;21754;48.216;-1.628;2022-08-05T05:57:25;17.90;99.90
35633;DHT22;21754;48.216;-1.628;2022-08-05T05:59:50;17.90;99.90
35633;DHT22;21754;48.216;-1.628;2022-08-05T06:02:16;17.90;99.90
35633;DHT22;21754;48.216;-1.628;2022-08-05T06:04:42;18.00;99.90
35633;DHT22;21754;48.216;-1.628;2022-08-05T06:07:07;17.90;99.90
35633;DHT22;21754;48.216;-1.628;2022-08-05T06:09:33;17.90;99.90
35633;DHT22;21754;48.216;-1.628;2022-08-05T06:11:58;18.00;99.90
35633;DHT22;21754;48.216;-1.628;2022-08-05T06:14:24;18.10;99.90
35633;DHT22;21754;48.216;-1.628;2022-08-05T06:16:50;18.20;99.90
35633;DHT22;21754;48.216;-1.628;2022-08-05T06:19:15;18.30;99.90
35633;DHT22;21754;48.216;-1.628;2022-08-05T06:21:41;18.40;99.90
35633;DHT22;21754;48.216;-1.628;2022-08-05T06:24:07;18.40;99.90
35633;DHT22;21754;48.216;-1.628;2022-08-05T06:26:33;18.30;99.90
35633;DHT22;21754;48.216;-1.628;2022-08-05T06:28:58;18.40;99.90
35633;DHT22;21754;48.216;-1.628;2022-08-05T06:31:24;18.40;99.90
35633;DHT22;21754;48.216;-1.628;2022-08-05T06:33:50;18.40;99.90
35633;DHT22;21754;48.216;-1.628;2022-08-05T06:36:15;18.40;99.90
35633;DHT22;21754;48.216;-1.628;2022-08-05T06:38:41;18.50;99.90
35633;DHT22;21754;48.216;-1.628;2022-08-05T06:41:07;18.60;99.90
35633;DHT22;21754;48.216;-1.628;2022-08-05T06:43:32;18.70;99.90
35633;DHT22;21754;48.216;-1.628;2022-08-05T06:45:58;18.70;99.90
35633;DHT22;21754;48.216;-1.628;2022-08-05T06:48:24;18.70;99.90
35633;DHT22;21754;48.216;-1.628;2022-08-05T06:50:49;18.60;99.90
35633;DHT22;21754;48.216;-1.628;2022-08-05T06:53:15;18.80;99.90
35633;DHT22;21754;48.216;-1.628;2022-08-05T06:55:41;18.80;99.90
35633;DHT22;21754;48.216;-1.628;2022-08-05T06:58:06;18.80;99.90
35633;DHT22;21754;48.216;-1.628;2022-08-05T07:00:32;18.80;99.90
35633;DHT22;21754;48.216;-1.628;2022-08-05T07:02:58;18.90;99.90
35633;DHT22;21754;48.216;-1.628;2022-08-05T07:05:24;19.00;99.90
35633;DHT22;21754;48.216;-1.628;2022-08-05T07:07:50;19.20;99.90
35633;DHT22;21754;48.216;-1.628;2022-08-05T07:10:16;19.10;99.90
35633;DHT22;21754;48.216;-1.628;2022-08-05T07:12:42;19.20;99.90
35633;DHT22;21754;48.216;-1.628;2022-08-05T07:15:26;19.40;99.90
35633;DHT22;21754;48.216;-1.628;2022-08-05T07:18:15;19.50;99.90
35633;DHT22;21754;48.216;-1.628;2022-08-05T07:20:40;19.40;99.90
35633;DHT22;21754;48.216;-1.628;2022-08-05T07:23:06;19.60;99.90
35633;DHT22;21754;48.216;-1.628;2022-08-05T08:04:29;19.70;99.90
35633;DHT22;21754;48.216;-1.628;2022-08-05T08:16:41;21.20;99.90
35633;DHT22;21754;48.216;-1.628;2022-08-05T08:19:06;21.80;99.90
35633;DHT22;21754;48.216;-1.628;2022-08-05T08:21:33;21.60;99.90
35633;DHT22;21754;48.216;-1.628;2022-08-05T08:23:59;21.50;99.90
35633;DHT22;21754;48.216;-1.628;2022-08-05T08:26:24;21.50;99.90
35633;DHT22;21754;48.216;-1.628;2022-08-05T08:28:50;21.40;99.90
35633;DHT22;21754;48.216;-1.628;2022-08-05T08:31:16;21.40;99.90
35633;DHT22;21754;48.216;-1.628;2022-08-05T08:33:43;21.40;99.90
35633;DHT22;21754;48.216;-1.628;2022-08-05T08:36:09;21.60;99.90
35633;DHT22;21754;48.216;-1.628;2022-08-05T08:38:35;21.50;99.90
35633;DHT22;21754;48.216;-1.628;2022-08-05T08:41:04;21.50;99.90
35633;DHT22;21754;48.216;-1.628;2022-08-05T08:46:00;21.60;99.90
35633;DHT22;21754;48.216;-1.628;2022-08-05T08:55:45;21.90;99.90
35633;DHT22;21754;48.216;-1.628;2022-08-05T08:58:14;22.10;99.90
35633;DHT22;21754;48.216;-1.628;2022-08-05T09:00:40;22.10;99.90
35633;DHT22;21754;48.216;-1.628;2022-08-05T09:03:09;22.30;99.90
35633;DHT22;21754;48.216;-1.628;2022-08-05T09:05:38;22.20;99.90
35633;DHT22;21754;48.216;-1.628;2022-08-05T09:25:26;22.60;99.90
35633;DHT22;21754;48.216;-1.628;2022-08-05T09:27:52;22.40;99.90
35633;DHT22;21754;48.216;-1.628;2022-08-05T09:30:18;22.00;99.90
35633;DHT22;21754;48.216;-1.628;2022-08-05T09:32:44;22.20;99.90
35633;DHT22;21754;48.216;-1.628;2022-08-05T09:40:30;22.40;99.90
35633;DHT22;21754;48.216;-1.628;2022-08-05T09:42:57;22.80;99.90
35633;DHT22;21754;48.216;-1.628;2022-08-05T09:58:12;23.10;99.90
35633;DHT22;21754;48.216;-1.628;2022-08-05T10:00:38;23.20;99.90
35633;DHT22;21754;48.216;-1.628;2022-08-05T10:03:09;23.30;99.90
35633;DHT22;21754;48.216;-1.628;2022-08-05T10:05:35;22.90;99.90
35633;DHT22;21754;48.216;-1.628;2022-08-05T10:08:04;22.70;99.90
35633;DHT22;21754;48.216;-1.628;2022-08-05T10:10:37;22.70;99.90
35633;DHT22;21754;48.216;-1.628;2022-08-05T10:13:03;22.60;99.90
35633;DHT22;21754;48.216;-1.628;2022-08-05T10:15:38;22.40;99.90
35633;DHT22;21754;48.216;-1.628;2022-08-05T10:18:15;22.60;99.90
35633;DHT22;21754;48.216;-1.628;2022-08-05T10:23:16;22.40;99.90
35633;DHT22;21754;48.216;-1.628;2022-08-05T10:25:42;22.50;99.90
35633;DHT22;21754;48.216;-1.628;2022-08-05T10:28:08;22.60;99.90
35633;DHT22;21754;48.216;-1.628;2022-08-05T10:30:35;22.60;99.90
35633;DHT22;21754;48.216;-1.628;2022-08-05T10:33:02;22.60;99.90
35633;DHT22;21754;48.216;-1.628;2022-08-05T10:35:28;22.90;99.90
35633;DHT22;21754;48.216;-1.628;2022-08-05T10:37:54;22.90;99.90
35633;DHT22;21754;48.216;-1.628;2022-08-05T10:40:29;23.20;99.90
35633;DHT22;21754;48.216;-1.628;2022-08-05T10:43:06;23.30;99.90
35633;DHT22;21754;48.216;-1.628;2022-08-05T10:45:32;23.20;99.90
35633;DHT22;21754;48.216;-1.628;2022-08-05T10:51:09;23.30;99.90
35633;DHT22;21754;48.216;-1.628;2022-08-05T10:54:01;23.60;99.90
35633;DHT22;21754;48.216;-1.628;2022-08-05T10:56:28;23.90;99.90
35633;DHT22;21754;48.216;-1.628;2022-08-05T11:04:15;24.60;99.90
35633;DHT22;21754;48.216;-1.628;2022-08-05T11:12:01;24.80;99.90
35633;DHT22;21754;48.216;-1.628;2022-08-05T11:14:28;24.40;98.90
35633;DHT22;21754;48.216;-1.628;2022-08-05T11:19:52;24.20;99.90
35633;DHT22;21754;48.216;-1.628;2022-08-05T11:22:45;24.10;99.40
35633;DHT22;21754;48.216;-1.628;2022-08-05T11:35:59;24.40;98.30
35633;DHT22;21754;48.216;-1.628;2022-08-05T11:41:24;24.20;96.10
35633;DHT22;21754;48.216;-1.628;2022-08-05T11:48:51;25.40;95.40
35633;DHT22;21754;48.216;-1.628;2022-08-05T11:51:17;26.00;98.00
35633;DHT22;21754;48.216;-1.628;2022-08-05T11:53:43;26.20;90.30
35633;DHT22;21754;48.216;-1.628;2022-08-05T11:56:08;26.10;88.70
35633;DHT22;21754;48.216;-1.628;2022-08-05T11:58:36;25.50;88.60
35633;DHT22;21754;48.216;-1.628;2022-08-05T12:01:22;25.50;92.20
35633;DHT22;21754;48.216;-1.628;2022-08-05T12:03:50;25.30;92.40
35633;DHT22;21754;48.216;-1.628;2022-08-05T12:06:19;25.20;92.20
35633;DHT22;21754;48.216;-1.628;2022-08-05T12:08:56;24.90;91.60
35633;DHT22;21754;48.216;-1.628;2022-08-05T12:11:25;25.00;92.70
35633;DHT22;21754;48.216;-1.628;2022-08-05T12:14:17;24.90;93.40
35633;DHT22;21754;48.216;-1.628;2022-08-05T12:16:44;25.00;91.60
35633;DHT22;21754;48.216;-1.628;2022-08-05T12:19:12;25.20;92.70
35633;DHT22;21754;48.216;-1.628;2022-08-05T12:21:46;24.90;90.60
35633;DHT22;21754;48.216;-1.628;2022-08-05T12:24:20;25.10;93.60
35633;DHT22;21754;48.216;-1.628;2022-08-05T12:26:50;25.40;94.10
35633;DHT22;21754;48.216;-1.628;2022-08-05T12:29:21;25.10;90.50
35633;DHT22;21754;48.216;-1.628;2022-08-05T12:31:56;25.10;91.70
35633;DHT22;21754;48.216;-1.628;2022-08-05T12:34:27;25.00;92.80
35633;DHT22;21754;48.216;-1.628;2022-08-05T12:36:55;24.90;92.60
35633;DHT22;21754;48.216;-1.628;2022-08-05T12:39:23;25.10;94.30
35633;DHT22;21754;48.216;-1.628;2022-08-05T12:41:49;25.20;91.50
35633;DHT22;21754;48.216;-1.628;2022-08-05T12:44:16;24.70;92.50
35633;DHT22;21754;48.216;-1.628;2022-08-05T12:46:52;24.50;92.70
35633;DHT22;21754;48.216;-1.628;2022-08-05T12:49:18;24.90;94.30
35633;DHT22;21754;48.216;-1.628;2022-08-05T12:54:30;24.90;93.20
35633;DHT22;21754;48.216;-1.628;2022-08-05T12:57:01;25.20;94.20
35633;DHT22;21754;48.216;-1.628;2022-08-05T12:59:29;25.10;92.90
35633;DHT22;21754;48.216;-1.628;2022-08-05T13:04:33;25.50;93.00
35633;DHT22;21754;48.216;-1.628;2022-08-05T13:07:01;25.60;90.90
35633;DHT22;21754;48.216;-1.628;2022-08-05T13:09:28;25.30;90.00
35633;DHT22;21754;48.216;-1.628;2022-08-05T13:12:07;25.10;90.20
35633;DHT22;21754;48.216;-1.628;2022-08-05T13:14:44;25.10;91.20
35633;DHT22;21754;48.216;-1.628;2022-08-05T13:17:20;25.20;93.50
35633;DHT22;21754;48.216;-1.628;2022-08-05T13:20:11;25.10;91.30
35633;DHT22;21754;48.216;-1.628;2022-08-05T13:22:41;25.00;92.60
35633;DHT22;21754;48.216;-1.628;2022-08-05T13:25:09;25.20;92.60
35633;DHT22;21754;48.216;-1.628;2022-08-05T13:27:38;25.20;93.00
35633;DHT22;21754;48.216;-1.628;2022-08-05T13:30:06;25.60;93.20
35633;DHT22;21754;48.216;-1.628;2022-08-05T13:32:32;25.60;91.10
35633;DHT22;21754;48.216;-1.628;2022-08-05T13:34:57;25.40;90.60
35633;DHT22;21754;48.216;-1.628;2022-08-05T13:37:23;25.40;91.00
35633;DHT22;21754;48.216;-1.628;2022-08-05T13:39:50;25.20;91.30
35633;DHT22;21754;48.216;-1.628;2022-08-05T13:42:19;25.20;91.80
35633;DHT22;21754;48.216;-1.628;2022-08-05T13:44:45;25.20;92.50
35633;DHT22;21754;48.216;-1.628;2022-08-05T13:47:12;25.50;91.10
35633;DHT22;21754;48.216;-1.628;2022-08-05T13:49:38;25.40;91.10
35633;DHT22;21754;48.216;-1.628;2022-08-05T13:52:18;25.30;91.30
35633;DHT22;21754;48.216;-1.628;2022-08-05T13:54:44;25.50;90.90
35633;DHT22;21754;48.216;-1.628;2022-08-05T13:57:11;25.40;89.90
35633;DHT22;21754;48.216;-1.628;2022-08-05T13:59:39;25.50;90.70
35633;DHT22;21754;48.216;-1.628;2022-08-05T14:02:06;25.80;90.10
35633;DHT22;21754;48.216;-1.628;2022-08-05T14:04:34;26.00;87.70
35633;DHT22;21754;48.216;-1.628;2022-08-05T14:07:23;25.70;89.70
35633;DHT22;21754;48.216;-1.628;2022-08-05T14:09:49;25.80;88.90
35633;DHT22;21754;48.216;-1.628;2022-08-05T14:12:15;25.90;89.10
35633;DHT22;21754;48.216;-1.628;2022-08-05T14:14:41;25.60;88.00
35633;DHT22;21754;48.216;-1.628;2022-08-05T14:17:06;25.60;87.50
35633;DHT22;21754;48.216;-1.628;2022-08-05T14:19:32;25.50;91.10
35633;DHT22;21754;48.216;-1.628;2022-08-05T14:21:58;25.90;90.90
35633;DHT22;21754;48.216;-1.628;2022-08-05T14:24:24;25.90;87.70
35633;DHT22;21754;48.216;-1.628;2022-08-05T14:26:50;25.60;87.60
35633;DHT22;21754;48.216;-1.628;2022-08-05T14:29:16;25.60;88.80
35633;DHT22;21754;48.216;-1.628;2022-08-05T14:31:41;25.40;87.30
35633;DHT22;21754;48.216;-1.628;2022-08-05T14:34:07;25.30;89.60
35633;DHT22;21754;48.216;-1.628;2022-08-05T14:36:33;25.50;89.50
35633;DHT22;21754;48.216;-1.628;2022-08-05T14:38:58;25.30;87.50
35633;DHT22;21754;48.216;-1.628;2022-08-05T14:41:24;25.20;86.30
35633;DHT22;21754;48.216;-1.628;2022-08-05T14:43:49;24.90;86.10
35633;DHT22;21754;48.216;-1.628;2022-08-05T14:46:16;24.90;88.50
35633;DHT22;21754;48.216;-1.628;2022-08-05T14:48:42;25.00;88.20
35633;DHT22;21754;48.216;-1.628;2022-08-05T14:51:07;25.20;89.20
35633;DHT22;21754;48.216;-1.628;2022-08-05T14:53:34;25.50;88.40
35633;DHT22;21754;48.216;-1.628;2022-08-05T14:55:59;25.60;86.10
35633;DHT22;21754;48.216;-1.628;2022-08-05T14:58:25;25.80;86.60
35633;DHT22;21754;48.216;-1.628;2022-08-05T15:00:50;25.90;85.40
35633;DHT22;21754;48.216;-1.628;2022-08-05T15:03:16;25.80;83.80
35633;DHT22;21754;48.216;-1.628;2022-08-05T15:05:42;25.40;84.50
35633;DHT22;21754;48.216;-1.628;2022-08-05T15:08:07;25.70;85.80
35633;DHT22;21754;48.216;-1.628;2022-08-05T15:10:33;25.60;84.70
35633;DHT22;21754;48.216;-1.628;2022-08-05T15:12:59;25.70;84.20
35633;DHT22;21754;48.216;-1.628;2022-08-05T15:15:26;25.70;82.50
35633;DHT22;21754;48.216;-1.628;2022-08-05T15:17:52;25.30;83.00
35633;DHT22;21754;48.216;-1.628;2022-08-05T15:20:17;25.10;83.10
35633;DHT22;21754;48.216;-1.628;2022-08-05T15:22:43;25.10;84.50
35633;DHT22;21754;48.216;-1.628;2022-08-05T15:25:09;25.20;84.00
35633;DHT22;21754;48.216;-1.628;2022-08-05T15:27:34;25.00;85.80
35633;DHT22;21754;48.216;-1.628;2022-08-05T15:30:00;25.20;86.10
35633;DHT22;21754;48.216;-1.628;2022-08-05T15:32:26;24.90;86.10
35633;DHT22;21754;48.216;-1.628;2022-08-05T15:34:52;24.90;87.50
35633;DHT22;21754;48.216;-1.628;2022-08-05T15:37:17;25.10;88.90
35633;DHT22;21754;48.216;-1.628;2022-08-05T15:39:43;25.30;87.60
35633;DHT22;21754;48.216;-1.628;2022-08-05T15:42:09;25.20;85.80
35633;DHT22;21754;48.216;-1.628;2022-08-05T15:44:39;25.30;84.80
35633;DHT22;21754;48.216;-1.628;2022-08-05T15:47:08;25.30;83.70
35633;DHT22;21754;48.216;-1.628;2022-08-05T15:49:34;24.80;85.10
35633;DHT22;21754;48.216;-1.628;2022-08-05T15:52:00;24.70;85.50
35633;DHT22;21754;48.216;-1.628;2022-08-05T15:54:26;24.50;86.10
35633;DHT22;21754;48.216;-1.628;2022-08-05T15:56:52;24.30;86.60
35633;DHT22;21754;48.216;-1.628;2022-08-05T15:59:17;24.40;89.00
35633;DHT22;21754;48.216;-1.628;2022-08-05T16:01:43;24.90;86.20
35633;DHT22;21754;48.216;-1.628;2022-08-05T16:04:09;24.80;85.70
35633;DHT22;21754;48.216;-1.628;2022-08-05T16:06:35;24.70;83.50
35633;DHT22;21754;48.216;-1.628;2022-08-05T16:09:01;24.50;83.90
35633;DHT22;21754;48.216;-1.628;2022-08-05T16:11:27;24.60;85.20
35633;DHT22;21754;48.216;-1.628;2022-08-05T16:13:53;24.60;84.20
35633;DHT22;21754;48.216;-1.628;2022-08-05T16:16:19;24.30;84.40
35633;DHT22;21754;48.216;-1.628;2022-08-05T16:18:48;24.20;85.80
35633;DHT22;21754;48.216;-1.628;2022-08-05T16:21:13;24.20;87.10
35633;DHT22;21754;48.216;-1.628;2022-08-05T16:23:39;23.90;86.20
35633;DHT22;21754;48.216;-1.628;2022-08-05T16:26:06;23.90;88.10
35633;DHT22;21754;48.216;-1.628;2022-08-05T16:28:32;24.10;88.40
35633;DHT22;21754;48.216;-1.628;2022-08-05T16:30:59;24.10;87.00
35633;DHT22;21754;48.216;-1.628;2022-08-05T16:33:25;24.10;87.40
35633;DHT22;21754;48.216;-1.628;2022-08-05T16:35:53;24.40;87.10
35633;DHT22;21754;48.216;-1.628;2022-08-05T16:38:19;24.30;86.90
35633;DHT22;21754;48.216;-1.628;2022-08-05T16:40:44;24.30;88.30
35633;DHT22;21754;48.216;-1.628;2022-08-05T16:43:10;24.30;86.60
35633;DHT22;21754;48.216;-1.628;2022-08-05T16:45:37;24.30;86.10
35633;DHT22;21754;48.216;-1.628;2022-08-05T16:48:03;24.10;88.30
35633;DHT22;21754;48.216;-1.628;2022-08-05T16:50:28;24.20;89.00
35633;DHT22;21754;48.216;-1.628;2022-08-05T16:52:54;24.00;89.80
35633;DHT22;21754;48.216;-1.628;2022-08-05T16:55:20;24.30;89.90
35633;DHT22;21754;48.216;-1.628;2022-08-05T16:57:45;24.60;90.00
35633;DHT22;21754;48.216;-1.628;2022-08-05T17:00:11;24.60;88.00
35633;DHT22;21754;48.216;-1.628;2022-08-05T17:02:37;24.20;89.20
35633;DHT22;21754;48.216;-1.628;2022-08-05T17:05:03;24.00;90.30
35633;DHT22;21754;48.216;-1.628;2022-08-05T17:07:28;24.40;89.50
35633;DHT22;21754;48.216;-1.628;2022-08-05T17:09:54;24.40;89.30
35633;DHT22;21754;48.216;-1.628;2022-08-05T17:12:20;24.40;86.80
35633;DHT22;21754;48.216;-1.628;2022-08-05T17:14:45;24.30;86.40
35633;DHT22;21754;48.216;-1.628;2022-08-05T17:17:11;23.90;86.40
35633;DHT22;21754;48.216;-1.628;2022-08-05T17:19:37;23.70;85.80
35633;DHT22;21754;48.216;-1.628;2022-08-05T17:22:02;23.50;87.10
35633;DHT22;21754;48.216;-1.628;2022-08-05T17:24:28;23.80;87.60
35633;DHT22;21754;48.216;-1.628;2022-08-05T17:26:53;23.90;87.10
35633;DHT22;21754;48.216;-1.628;2022-08-05T17:29:19;24.10;85.90
35633;DHT22;21754;48.216;-1.628;2022-08-05T17:31:45;24.00;84.50
35633;DHT22;21754;48.216;-1.628;2022-08-05T17:34:10;23.90;84.40
35633;DHT22;21754;48.216;-1.628;2022-08-05T17:36:36;23.70;83.50
35633;DHT22;21754;48.216;-1.628;2022-08-05T17:39:02;23.50;83.10
35633;DHT22;21754;48.216;-1.628;2022-08-05T17:41:28;23.80;83.80
35633;DHT22;21754;48.216;-1.628;2022-08-05T17:43:53;23.90;83.00
35633;DHT22;21754;48.216;-1.628;2022-08-05T17:46:19;23.90;83.30
35633;DHT22;21754;48.216;-1.628;2022-08-05T17:48:45;23.70;81.40
35633;DHT22;21754;48.216;-1.628;2022-08-05T17:51:12;23.70;82.90
35633;DHT22;21754;48.216;-1.628;2022-08-05T17:53:37;23.70;83.30
35633;DHT22;21754;48.216;-1.628;2022-08-05T17:56:03;23.70;83.50
35633;DHT22;21754;48.216;-1.628;2022-08-05T17:58:29;23.80;84.00
35633;DHT22;21754;48.216;-1.628;2022-08-05T18:00:55;23.80;84.40
35633;DHT22;21754;48.216;-1.628;2022-08-05T18:03:21;23.70;85.70
35633;DHT22;21754;48.216;-1.628;2022-08-05T18:05:47;23.50;86.30
35633;DHT22;21754;48.216;-1.628;2022-08-05T18:08:13;23.30;87.00
35633;DHT22;21754;48.216;-1.628;2022-08-05T18:10:38;23.40;89.00
35633;DHT22;21754;48.216;-1.628;2022-08-05T18:13:04;23.50;88.50
35633;DHT22;21754;48.216;-1.628;2022-08-05T18:15:30;23.60;89.30
35633;DHT22;21754;48.216;-1.628;2022-08-05T18:17:55;23.60;89.60
35633;DHT22;21754;48.216;-1.628;2022-08-05T18:20:21;23.50;90.00
35633;DHT22;21754;48.216;-1.628;2022-08-05T18:22:46;23.60;90.50
35633;DHT22;21754;48.216;-1.628;2022-08-05T18:25:12;23.40;91.10
35633;DHT22;21754;48.216;-1.628;2022-08-05T18:27:38;23.30;90.80
35633;DHT22;21754;48.216;-1.628;2022-08-05T18:30:04;22.80;92.00
35633;DHT22;21754;48.216;-1.628;2022-08-05T18:32:30;22.80;92.60
35633;DHT22;21754;48.216;-1.628;2022-08-05T18:34:56;22.70;93.40
35633;DHT22;21754;48.216;-1.628;2022-08-05T18:37:21;22.60;93.50
35633;DHT22;21754;48.216;-1.628;2022-08-05T18:39:47;22.50;94.20
35633;DHT22;21754;48.216;-1.628;2022-08-05T18:42:13;22.50;94.80
35633;DHT22;21754;48.216;-1.628;2022-08-05T18:44:38;22.30;95.70
35633;DHT22;21754;48.216;-1.628;2022-08-05T18:47:04;22.10;96.60
35633;DHT22;21754;48.216;-1.628;2022-08-05T18:49:30;22.30;96.90
35633;DHT22;21754;48.216;-1.628;2022-08-05T18:52:14;22.20;97.10
35633;DHT22;21754;48.216;-1.628;2022-08-05T18:55:01;22.00;98.00
35633;DHT22;21754;48.216;-1.628;2022-08-05T18:57:29;22.00;98.30
35633;DHT22;21754;48.216;-1.628;2022-08-05T18:59:54;22.00;98.60
35633;DHT22;21754;48.216;-1.628;2022-08-05T19:02:20;22.00;98.70
35633;DHT22;21754;48.216;-1.628;2022-08-05T19:04:46;21.80;99.40
35633;DHT22;21754;48.216;-1.628;2022-08-05T19:07:12;21.90;99.40
35633;DHT22;21754;48.216;-1.628;2022-08-05T19:09:37;21.90;99.70
35633;DHT22;21754;48.216;-1.628;2022-08-05T19:12:03;21.60;99.90
35633;DHT22;21754;48.216;-1.628;2022-08-05T19:14:29;21.60;99.90
35633;DHT22;21754;48.216;-1.628;2022-08-05T19:16:55;21.70;99.90
35633;DHT22;21754;48.216;-1.628;2022-08-05T19:19:20;21.50;99.90
35633;DHT22;21754;48.216;-1.628;2022-08-05T19:21:46;21.40;99.90
35633;DHT22;21754;48.216;-1.628;2022-08-05T19:24:12;21.40;99.90
35633;DHT22;21754;48.216;-1.628;2022-08-05T19:26:38;21.50;99.90
35633;DHT22;21754;48.216;-1.628;2022-08-05T19:29:04;21.60;99.90
35633;DHT22;21754;48.216;-1.628;2022-08-05T19:31:30;21.60;99.90
35633;DHT22;21754;48.216;-1.628;2022-08-05T19:33:55;21.60;99.90
35633;DHT22;21754;48.216;-1.628;2022-08-05T19:36:21;21.40;99.90
35633;DHT22;21754;48.216;-1.628;2022-08-05T19:38:47;21.40;99.90
35633;DHT22;21754;48.216;-1.628;2022-08-05T19:41:13;21.30;99.90
35633;DHT22;21754;48.216;-1.628;2022-08-05T19:43:39;21.30;99.90
35633;DHT22;21754;48.216;-1.628;2022-08-05T19:46:06;21.20;99.90
35633;DHT22;21754;48.216;-1.628;2022-08-05T19:48:32;21.10;99.90
35633;DHT22;21754;48.216;-1.628;2022-08-05T19:50:58;21.20;99.90
35633;DHT22;21754;48.216;-1.628;2022-08-05T19:53:24;21.10;99.90
35633;DHT22;21754;48.216;-1.628;2022-08-05T19:55:50;21.00;99.90
35633;DHT22;21754;48.216;-1.628;2022-08-05T19:58:15;21.00;99.90
35633;DHT22;21754;48.216;-1.628;2022-08-05T20:00:41;21.00;99.90